Argonia, KS

11:45 AM CDT on July 23, 2014 (GMT -0500)
Blackwell (KBKN) Elev 1030 ft | 36.75 °N, 97.35 °W | Change Station

Current weather conditions updated 30 minutes ago

Mostly Cloudy
Mostly Cloudy
90 °F
Feels Like 100 °F
N
9
Wind Variable Wind from North

Today is forecast to be nearly the same temperature as yesterday.

Today
High -- | Low -- °F
--% Chance of Precip.
Yesterday
High -- | Low -- °F
Precip. -- in
6:28 AM 8:46 PM
Waning Crescent, 10% visible
Pressure 30.12 in
Visibility 9.0 miles
Clouds Mostly Cloudy 8000 ft
Heat Index 100 °F
Dew Point 75 °F
Humidity 62%
Rainfall 0.00 in
Snow Depth Not available.
UV 5 out of 12
Pollen 5.20 out of 12
Air Quality Not available.
Flu Activity Not available.
METAR KBKN 231615Z AUTO 01008KT 9SM BKN080 32/24 A3012 RMK AO2

More Conditions Fewer Conditions

Pressure 30.12 in
Visibility 9.0 miles
Clouds Mostly Cloudy 8000 ft
Heat Index 100 °F
Dew Point 75 °F
Humidity 62%
Rainfall 0.00 in
Snow Depth Not available.
UV 5 out of 12
Pollen 5.20 out of 12
Air Quality Not available.
Flu Activity Not available.
METAR KBKN 231615Z AUTO 01008KT 9SM BKN080 32/24 A3012 RMK AO2

More Conditions Fewer Conditions

10-Day Weather Forecast

Almanac

Astronomy

Jul. 23, 2014 Rise Set
Actual Time 6:28 AM CDT 8:46 PM CDT
Civil Twilight 5:58 AM CDT 9:15 PM CDT
Nautical Twilight 5:22 AM CDT 9:51 PM CDT
Astronomical Twilight 4:42 AM CDT 10:31 PM CDT
Moon 3:48 AM CDT 6:16 PM CDT
Length of Visible Light 15h 16m
Length of Day
14h 17m
Tomorrow will be 1m 32s shorter.
Waning Crescent, 10% of the Moon is Illuminated
Today
Waning Crescent
Jul 26
New
Aug 3
First Quarter
Aug 10
Full
Aug 17
Last Quarter

Today's Extremes

State Highs State Lows

Community

WunderPhotos

Upload Photos

1,736,668 photos uploaded!

Nearby

Snow Depth

Station Depth Elevation
No new snow has been reported.

Earthquake Activity

City Distance Mag. Time & Date
Spencer, Oklahoma 117 miles 2.7 4:56 PM CDT
2014-07-18
Helena, Oklahoma 47 miles 3.2 8:41 AM CDT
2014-07-18
Guthrie, Oklahoma 99 miles 2.9 8:59 PM CDT
2014-07-17
Perry, Oklahoma 82 miles 2.8 8:37 PM CDT
2014-07-17
Minimum magnitude displayed is 2.5.

Coastal Water Temperatures

Place Temperature
No Stations Reporting

Nearby Weather Stations

Station Location Temp. Heat Index Dew Point Humidity Wind Precip. Elev Updated Type
MesoWest PERTH , Mayfield, KS 77 °F 75 °F - - North  at  - 0.00 in / hr 1228 ft 7:50 AM CDT MADIS
Caldwell Hess, Caldwell, KS 88.7 °F 103 °F 79 °F 72% ENE  at  3.0 mph 0.00 in / hr 1165 ft 11:43 AM CDT Normal
KanOkla, Caldwell, KS 90.3 °F 104 °F 77 °F 66% NE  at  9.0 mph 0.00 in / hr 1168 ft 11:40 AM CDT Normal
MesoWest RNFROW , Caldwell, KS 76 °F 74 °F - - North  at  - 0.00 in / hr 1240 ft 8:20 AM CDT MADIS
Dove Haven, Clearwater, KS 79.4 °F 82 °F 70 °F 74% ENE  at  5.0 mph 0.00 in / hr 1394 ft 11:45 AM CDT Normal

Show More Stations Show Fewer Stations